sensor_id;sensor_type;location;lat;lon;timestamp;P1;durP1;ratioP1;P2;durP2;ratioP2
7158;SDS011;63175;52.374;13.132;2024-02-26T00:00:38;3.50;;;2.70;;
7158;SDS011;63175;52.374;13.132;2024-02-26T00:03:05;3.57;;;3.10;;
7158;SDS011;63175;52.374;13.132;2024-02-26T00:05:32;4.07;;;3.27;;
7158;SDS011;63175;52.374;13.132;2024-02-26T00:08:01;3.37;;;2.73;;
7158;SDS011;63175;52.374;13.132;2024-02-26T00:10:28;3.60;;;2.23;;
7158;SDS011;63175;52.374;13.132;2024-02-26T00:12:55;2.90;;;2.60;;
7158;SDS011;63175;52.374;13.132;2024-02-26T00:15:21;3.73;;;2.83;;
7158;SDS011;63175;52.374;13.132;2024-02-26T00:17:49;4.20;;;3.00;;
7158;SDS011;63175;52.374;13.132;2024-02-26T00:20:16;3.97;;;3.00;;
7158;SDS011;63175;52.374;13.132;2024-02-26T00:22:43;3.30;;;2.77;;
7158;SDS011;63175;52.374;13.132;2024-02-26T00:25:11;3.50;;;2.87;;
7158;SDS011;63175;52.374;13.132;2024-02-26T00:27:38;3.83;;;2.90;;
7158;SDS011;63175;52.374;13.132;2024-02-26T00:30:06;3.23;;;2.80;;
7158;SDS011;63175;52.374;13.132;2024-02-26T00:32:35;4.70;;;3.93;;
7158;SDS011;63175;52.374;13.132;2024-02-26T00:35:02;3.33;;;2.93;;
7158;SDS011;63175;52.374;13.132;2024-02-26T00:37:29;3.03;;;2.60;;
7158;SDS011;63175;52.374;13.132;2024-02-26T00:39:56;3.83;;;3.00;;
7158;SDS011;63175;52.374;13.132;2024-02-26T00:42:24;2.70;;;2.50;;
7158;SDS011;63175;52.374;13.132;2024-02-26T00:44:51;3.57;;;2.60;;
7158;SDS011;63175;52.374;13.132;2024-02-26T00:47:18;2.70;;;2.03;;
7158;SDS011;63175;52.374;13.132;2024-02-26T00:49:45;2.43;;;2.20;;
7158;SDS011;63175;52.374;13.132;2024-02-26T00:52:12;3.47;;;3.17;;
7158;SDS011;63175;52.374;13.132;2024-02-26T00:54:39;3.33;;;2.57;;
7158;SDS011;63175;52.374;13.132;2024-02-26T00:57:06;2.23;;;2.10;;
7158;SDS011;63175;52.374;13.132;2024-02-26T00:59:34;2.23;;;2.10;;
7158;SDS011;63175;52.374;13.132;2024-02-26T01:02:01;2.20;;;1.70;;
7158;SDS011;63175;52.374;13.132;2024-02-26T01:04:30;2.50;;;2.30;;
7158;SDS011;63175;52.374;13.132;2024-02-26T01:06:59;3.33;;;2.53;;
7158;SDS011;63175;52.374;13.132;2024-02-26T01:09:26;4.43;;;2.60;;
7158;SDS011;63175;52.374;13.132;2024-02-26T01:11:52;2.77;;;2.57;;
7158;SDS011;63175;52.374;13.132;2024-02-26T01:14:19;2.80;;;2.47;;
7158;SDS011;63175;52.374;13.132;2024-02-26T01:16:48;3.00;;;2.27;;
7158;SDS011;63175;52.374;13.132;2024-02-26T01:19:14;2.93;;;2.70;;
7158;SDS011;63175;52.374;13.132;2024-02-26T01:21:41;2.33;;;2.13;;
7158;SDS011;63175;52.374;13.132;2024-02-26T01:24:08;2.73;;;2.53;;
7158;SDS011;63175;52.374;13.132;2024-02-26T01:26:35;3.10;;;2.80;;
7158;SDS011;63175;52.374;13.132;2024-02-26T01:29:02;2.60;;;2.40;;
7158;SDS011;63175;52.374;13.132;2024-02-26T01:31:29;3.83;;;3.20;;
7158;SDS011;63175;52.374;13.132;2024-02-26T01:33:57;2.43;;;2.23;;
7158;SDS011;63175;52.374;13.132;2024-02-26T01:36:24;3.90;;;2.80;;
7158;SDS011;63175;52.374;13.132;2024-02-26T01:38:51;4.50;;;3.13;;
7158;SDS011;63175;52.374;13.132;2024-02-26T01:41:18;4.07;;;3.30;;
7158;SDS011;63175;52.374;13.132;2024-02-26T01:43:45;4.20;;;2.67;;
7158;SDS011;63175;52.374;13.132;2024-02-26T01:46:13;3.43;;;3.00;;
7158;SDS011;63175;52.374;13.132;2024-02-26T01:48:40;2.43;;;2.23;;
7158;SDS011;63175;52.374;13.132;2024-02-26T01:51:10;4.00;;;2.97;;
7158;SDS011;63175;52.374;13.132;2024-02-26T01:53:38;3.00;;;2.70;;
7158;SDS011;63175;52.374;13.132;2024-02-26T01:56:05;4.43;;;3.10;;
7158;SDS011;63175;52.374;13.132;2024-02-26T01:58:32;3.90;;;3.20;;
7158;SDS011;63175;52.374;13.132;2024-02-26T02:01:00;3.70;;;3.07;;
7158;SDS011;63175;52.374;13.132;2024-02-26T02:03:28;4.30;;;2.63;;
7158;SDS011;63175;52.374;13.132;2024-02-26T02:05:56;4.60;;;3.20;;
7158;SDS011;63175;52.374;13.132;2024-02-26T02:08:25;4.07;;;3.20;;
7158;SDS011;63175;52.374;13.132;2024-02-26T02:10:52;5.87;;;3.60;;
7158;SDS011;63175;52.374;13.132;2024-02-26T02:13:19;3.20;;;2.97;;
7158;SDS011;63175;52.374;13.132;2024-02-26T02:15:46;3.03;;;2.83;;
7158;SDS011;63175;52.374;13.132;2024-02-26T02:18:13;3.73;;;3.07;;
7158;SDS011;63175;52.374;13.132;2024-02-26T02:20:41;2.70;;;2.50;;
7158;SDS011;63175;52.374;13.132;2024-02-26T02:23:08;3.10;;;2.90;;
7158;SDS011;63175;52.374;13.132;2024-02-26T02:25:35;3.30;;;2.73;;
7158;SDS011;63175;52.374;13.132;2024-02-26T02:28:02;2.80;;;2.60;;
7158;SDS011;63175;52.374;13.132;2024-02-26T02:30:30;3.50;;;2.83;;
7158;SDS011;63175;52.374;13.132;2024-02-26T02:32:58;2.87;;;2.67;;
7158;SDS011;63175;52.374;13.132;2024-02-26T02:35:25;2.60;;;2.40;;
7158;SDS011;63175;52.374;13.132;2024-02-26T02:37:53;2.40;;;2.20;;
7158;SDS011;63175;52.374;13.132;2024-02-26T02:40:24;2.93;;;2.63;;
7158;SDS011;63175;52.374;13.132;2024-02-26T02:42:50;3.10;;;2.90;;
7158;SDS011;63175;52.374;13.132;2024-02-26T02:45:17;2.87;;;2.67;;
7158;SDS011;63175;52.374;13.132;2024-02-26T02:47:44;3.10;;;2.40;;
7158;SDS011;63175;52.374;13.132;2024-02-26T02:50:11;2.80;;;2.60;;
7158;SDS011;63175;52.374;13.132;2024-02-26T02:52:38;3.43;;;2.90;;
7158;SDS011;63175;52.374;13.132;2024-02-26T02:55:06;3.23;;;2.60;;
7158;SDS011;63175;52.374;13.132;2024-02-26T02:57:33;4.70;;;3.07;;
7158;SDS011;63175;52.374;13.132;2024-02-26T03:00:06;3.30;;;3.00;;
7158;SDS011;63175;52.374;13.132;2024-02-26T03:02:33;2.90;;;2.70;;
7158;SDS011;63175;52.374;13.132;2024-02-26T03:05:00;4.30;;;2.93;;
7158;SDS011;63175;52.374;13.132;2024-02-26T03:07:27;3.97;;;3.10;;
7158;SDS011;63175;52.374;13.132;2024-02-26T03:09:54;3.37;;;3.00;;
7158;SDS011;63175;52.374;13.132;2024-02-26T03:12:23;3.37;;;3.07;;
7158;SDS011;63175;52.374;13.132;2024-02-26T03:14:49;3.67;;;3.40;;
7158;SDS011;63175;52.374;13.132;2024-02-26T03:17:17;3.23;;;3.00;;
7158;SDS011;63175;52.374;13.132;2024-02-26T03:19:44;4.20;;;3.40;;
7158;SDS011;63175;52.374;13.132;2024-02-26T03:22:12;3.67;;;3.20;;
7158;SDS011;63175;52.374;13.132;2024-02-26T03:24:39;3.77;;;3.00;;
7158;SDS011;63175;52.374;13.132;2024-02-26T03:27:06;4.40;;;3.50;;
7158;SDS011;63175;52.374;13.132;2024-02-26T03:29:35;3.37;;;2.97;;
7158;SDS011;63175;52.374;13.132;2024-02-26T03:32:03;4.30;;;3.80;;
7158;SDS011;63175;52.374;13.132;2024-02-26T03:34:30;3.73;;;3.27;;
7158;SDS011;63175;52.374;13.132;2024-02-26T03:36:59;4.43;;;4.03;;
7158;SDS011;63175;52.374;13.132;2024-02-26T03:39:26;3.43;;;3.13;;
7158;SDS011;63175;52.374;13.132;2024-02-26T03:41:53;4.30;;;3.90;;
7158;SDS011;63175;52.374;13.132;2024-02-26T03:44:20;4.37;;;3.80;;
7158;SDS011;63175;52.374;13.132;2024-02-26T03:46:48;6.10;;;3.73;;
7158;SDS011;63175;52.374;13.132;2024-02-26T03:49:15;3.57;;;3.07;;
7158;SDS011;63175;52.374;13.132;2024-02-26T03:51:43;3.70;;;3.37;;
7158;SDS011;63175;52.374;13.132;2024-02-26T03:54:09;3.60;;;3.30;;
7158;SDS011;63175;52.374;13.132;2024-02-26T03:56:36;7.50;;;4.47;;
7158;SDS011;63175;52.374;13.132;2024-02-26T03:59:03;4.00;;;3.70;;
7158;SDS011;63175;52.374;13.132;2024-02-26T04:01:31;3.70;;;3.30;;
7158;SDS011;63175;52.374;13.132;2024-02-26T04:03:59;5.20;;;3.60;;
7158;SDS011;63175;52.374;13.132;2024-02-26T04:06:26;3.47;;;3.13;;
7158;SDS011;63175;52.374;13.132;2024-02-26T04:08:53;5.60;;;4.00;;
7158;SDS011;63175;52.374;13.132;2024-02-26T04:11:20;5.33;;;4.00;;
7158;SDS011;63175;52.374;13.132;2024-02-26T04:13:47;3.60;;;3.17;;
7158;SDS011;63175;52.374;13.132;2024-02-26T04:16:16;5.80;;;4.33;;
7158;SDS011;63175;52.374;13.132;2024-02-26T04:18:43;4.70;;;3.80;;
7158;SDS011;63175;52.374;13.132;2024-02-26T04:21:11;3.90;;;3.50;;
7158;SDS011;63175;52.374;13.132;2024-02-26T04:23:38;5.50;;;3.70;;
7158;SDS011;63175;52.374;13.132;2024-02-26T04:26:05;5.87;;;3.83;;
7158;SDS011;63175;52.374;13.132;2024-02-26T04:28:31;3.47;;;3.20;;
7158;SDS011;63175;52.374;13.132;2024-02-26T04:30:58;3.57;;;3.27;;
7158;SDS011;63175;52.374;13.132;2024-02-26T04:33:25;4.30;;;3.87;;
7158;SDS011;63175;52.374;13.132;2024-02-26T04:35:52;4.83;;;3.57;;
7158;SDS011;63175;52.374;13.132;2024-02-26T04:38:20;4.43;;;4.00;;
7158;SDS011;63175;52.374;13.132;2024-02-26T04:40:47;4.10;;;3.70;;
7158;SDS011;63175;52.374;13.132;2024-02-26T04:43:14;4.03;;;3.57;;
7158;SDS011;63175;52.374;13.132;2024-02-26T04:45:42;4.47;;;4.07;;
7158;SDS011;63175;52.374;13.132;2024-02-26T04:48:09;4.93;;;3.07;;
7158;SDS011;63175;52.374;13.132;2024-02-26T04:50:36;6.30;;;4.90;;
7158;SDS011;63175;52.374;13.132;2024-02-26T04:53:03;10.47;;;6.57;;
7158;SDS011;63175;52.374;13.132;2024-02-26T04:55:31;10.27;;;7.00;;
7158;SDS011;63175;52.374;13.132;2024-02-26T04:57:59;11.57;;;6.63;;
7158;SDS011;63175;52.374;13.132;2024-02-26T05:00:25;6.80;;;6.10;;
7158;SDS011;63175;52.374;13.132;2024-02-26T05:02:52;5.40;;;4.43;;
7158;SDS011;63175;52.374;13.132;2024-02-26T05:05:19;8.20;;;5.40;;
7158;SDS011;63175;52.374;13.132;2024-02-26T05:07:46;5.83;;;5.00;;
7158;SDS011;63175;52.374;13.132;2024-02-26T05:10:13;5.87;;;5.10;;
7158;SDS011;63175;52.374;13.132;2024-02-26T05:12:41;7.83;;;4.33;;
7158;SDS011;63175;52.374;13.132;2024-02-26T05:15:08;5.90;;;4.47;;
7158;SDS011;63175;52.374;13.132;2024-02-26T05:17:35;4.97;;;4.20;;
7158;SDS011;63175;52.374;13.132;2024-02-26T05:20:02;5.03;;;3.83;;
7158;SDS011;63175;52.374;13.132;2024-02-26T05:22:32;3.30;;;3.00;;
7158;SDS011;63175;52.374;13.132;2024-02-26T05:25:00;3.93;;;3.53;;
7158;SDS011;63175;52.374;13.132;2024-02-26T05:27:27;5.37;;;3.93;;
7158;SDS011;63175;52.374;13.132;2024-02-26T05:29:55;6.53;;;4.73;;
7158;SDS011;63175;52.374;13.132;2024-02-26T05:32:22;5.23;;;4.73;;
7158;SDS011;63175;52.374;13.132;2024-02-26T05:34:48;4.37;;;3.87;;
7158;SDS011;63175;52.374;13.132;2024-02-26T05:37:15;5.20;;;3.63;;
7158;SDS011;63175;52.374;13.132;2024-02-26T05:39:42;5.30;;;4.50;;
7158;SDS011;63175;52.374;13.132;2024-02-26T05:42:09;4.30;;;3.57;;
7158;SDS011;63175;52.374;13.132;2024-02-26T05:44:36;6.17;;;4.10;;
7158;SDS011;63175;52.374;13.132;2024-02-26T05:47:04;5.00;;;4.10;;
7158;SDS011;63175;52.374;13.132;2024-02-26T05:49:31;3.97;;;3.63;;
7158;SDS011;63175;52.374;13.132;2024-02-26T05:51:58;5.00;;;3.73;;
7158;SDS011;63175;52.374;13.132;2024-02-26T05:54:25;6.80;;;4.87;;
7158;SDS011;63175;52.374;13.132;2024-02-26T05:56:52;5.83;;;4.63;;
7158;SDS011;63175;52.374;13.132;2024-02-26T05:59:19;5.73;;;3.97;;
7158;SDS011;63175;52.374;13.132;2024-02-26T06:01:45;4.13;;;3.73;;
7158;SDS011;63175;52.374;13.132;2024-02-26T06:04:14;5.93;;;4.10;;
7158;SDS011;63175;52.374;13.132;2024-02-26T06:06:42;5.00;;;4.43;;
7158;SDS011;63175;52.374;13.132;2024-02-26T06:09:08;4.53;;;4.13;;
7158;SDS011;63175;52.374;13.132;2024-02-26T06:11:37;4.13;;;3.73;;
7158;SDS011;63175;52.374;13.132;2024-02-26T06:14:04;4.87;;;4.37;;
7158;SDS011;63175;52.374;13.132;2024-02-26T06:16:31;8.10;;;5.30;;
7158;SDS011;63175;52.374;13.132;2024-02-26T06:18:58;4.80;;;4.20;;
7158;SDS011;63175;52.374;13.132;2024-02-26T06:21:27;5.87;;;5.20;;
7158;SDS011;63175;52.374;13.132;2024-02-26T06:23:54;5.63;;;5.00;;
7158;SDS011;63175;52.374;13.132;2024-02-26T06:26:21;7.20;;;5.30;;
7158;SDS011;63175;52.374;13.132;2024-02-26T06:28:47;6.30;;;5.50;;
7158;SDS011;63175;52.374;13.132;2024-02-26T06:31:14;6.90;;;5.37;;
7158;SDS011;63175;52.374;13.132;2024-02-26T06:33:42;7.20;;;5.90;;
7158;SDS011;63175;52.374;13.132;2024-02-26T06:36:09;6.17;;;5.40;;
7158;SDS011;63175;52.374;13.132;2024-02-26T06:38:37;7.40;;;6.37;;
7158;SDS011;63175;52.374;13.132;2024-02-26T06:41:04;7.33;;;5.80;;
7158;SDS011;63175;52.374;13.132;2024-02-26T06:43:31;6.10;;;5.40;;
7158;SDS011;63175;52.374;13.132;2024-02-26T06:45:58;8.70;;;6.87;;
7158;SDS011;63175;52.374;13.132;2024-02-26T06:48:25;9.97;;;6.80;;
7158;SDS011;63175;52.374;13.132;2024-02-26T06:50:52;10.53;;;7.63;;
7158;SDS011;63175;52.374;13.132;2024-02-26T06:53:18;10.20;;;7.47;;
7158;SDS011;63175;52.374;13.132;2024-02-26T06:55:47;8.10;;;6.23;;
7158;SDS011;63175;52.374;13.132;2024-02-26T06:58:15;9.30;;;7.23;;
7158;SDS011;63175;52.374;13.132;2024-02-26T07:00:42;8.30;;;6.73;;
7158;SDS011;63175;52.374;13.132;2024-02-26T07:03:09;7.67;;;6.00;;
7158;SDS011;63175;52.374;13.132;2024-02-26T07:05:36;6.57;;;5.90;;
7158;SDS011;63175;52.374;13.132;2024-02-26T07:08:03;7.70;;;6.03;;
7158;SDS011;63175;52.374;13.132;2024-02-26T07:10:30;9.60;;;7.00;;
7158;SDS011;63175;52.374;13.132;2024-02-26T07:12:58;8.30;;;6.13;;
7158;SDS011;63175;52.374;13.132;2024-02-26T07:15:25;7.20;;;5.43;;
7158;SDS011;63175;52.374;13.132;2024-02-26T07:17:52;14.73;;;6.97;;
7158;SDS011;63175;52.374;13.132;2024-02-26T07:20:19;9.57;;;7.47;;
7158;SDS011;63175;52.374;13.132;2024-02-26T07:22:45;9.17;;;7.50;;
7158;SDS011;63175;52.374;13.132;2024-02-26T07:25:12;10.33;;;8.13;;
7158;SDS011;63175;52.374;13.132;2024-02-26T07:27:41;9.50;;;7.80;;
7158;SDS011;63175;52.374;13.132;2024-02-26T07:30:10;8.80;;;7.13;;
7158;SDS011;63175;52.374;13.132;2024-02-26T07:32:37;8.53;;;6.43;;
7158;SDS011;63175;52.374;13.132;2024-02-26T07:35:04;9.30;;;7.50;;
7158;SDS011;63175;52.374;13.132;2024-02-26T07:37:31;8.90;;;7.10;;
7158;SDS011;63175;52.374;13.132;2024-02-26T07:39:58;8.10;;;7.13;;
7158;SDS011;63175;52.374;13.132;2024-02-26T07:42:25;8.20;;;7.10;;
7158;SDS011;63175;52.374;13.132;2024-02-26T07:44:52;8.80;;;7.17;;
7158;SDS011;63175;52.374;13.132;2024-02-26T07:47:20;10.40;;;7.90;;
7158;SDS011;63175;52.374;13.132;2024-02-26T07:49:48;12.93;;;7.00;;
7158;SDS011;63175;52.374;13.132;2024-02-26T07:52:15;10.57;;;7.80;;
7158;SDS011;63175;52.374;13.132;2024-02-26T07:54:41;9.63;;;7.77;;
7158;SDS011;63175;52.374;13.132;2024-02-26T07:57:08;9.73;;;7.73;;
7158;SDS011;63175;52.374;13.132;2024-02-26T07:59:35;12.43;;;8.40;;
7158;SDS011;63175;52.374;13.132;2024-02-26T08:02:02;10.93;;;7.80;;
7158;SDS011;63175;52.374;13.132;2024-02-26T08:04:32;9.57;;;7.70;;
7158;SDS011;63175;52.374;13.132;2024-02-26T08:06:58;8.10;;;7.07;;
7158;SDS011;63175;52.374;13.132;2024-02-26T08:09:25;9.00;;;7.60;;
7158;SDS011;63175;52.374;13.132;2024-02-26T08:11:52;9.23;;;7.37;;
7158;SDS011;63175;52.374;13.132;2024-02-26T08:14:19;9.33;;;8.37;;
7158;SDS011;63175;52.374;13.132;2024-02-26T08:16:46;10.80;;;8.53;;
7158;SDS011;63175;52.374;13.132;2024-02-26T08:19:14;10.17;;;7.77;;
7158;SDS011;63175;52.374;13.132;2024-02-26T08:21:42;9.53;;;8.00;;
7158;SDS011;63175;52.374;13.132;2024-02-26T08:24:09;11.83;;;8.83;;
7158;SDS011;63175;52.374;13.132;2024-02-26T08:26:36;10.57;;;8.77;;
7158;SDS011;63175;52.374;13.132;2024-02-26T08:29:02;11.17;;;9.50;;
7158;SDS011;63175;52.374;13.132;2024-02-26T08:31:29;10.43;;;8.60;;
7158;SDS011;63175;52.374;13.132;2024-02-26T08:33:56;10.07;;;8.63;;
7158;SDS011;63175;52.374;13.132;2024-02-26T08:36:24;10.67;;;8.83;;
7158;SDS011;63175;52.374;13.132;2024-02-26T08:38:52;11.87;;;9.90;;
7158;SDS011;63175;52.374;13.132;2024-02-26T08:41:19;11.63;;;9.20;;
7158;SDS011;63175;52.374;13.132;2024-02-26T08:43:46;9.70;;;8.33;;
7158;SDS011;63175;52.374;13.132;2024-02-26T08:46:13;10.83;;;8.67;;
7158;SDS011;63175;52.374;13.132;2024-02-26T08:48:40;10.00;;;8.33;;
7158;SDS011;63175;52.374;13.132;2024-02-26T08:51:07;10.77;;;8.60;;
7158;SDS011;63175;52.374;13.132;2024-02-26T08:53:34;10.93;;;8.10;;
7158;SDS011;63175;52.374;13.132;2024-02-26T08:56:02;10.33;;;8.53;;
7158;SDS011;63175;52.374;13.132;2024-02-26T08:58:30;12.30;;;8.40;;
7158;SDS011;63175;52.374;13.132;2024-02-26T09:00:56;10.83;;;8.17;;
7158;SDS011;63175;52.374;13.132;2024-02-26T09:03:23;10.33;;;8.70;;
7158;SDS011;63175;52.374;13.132;2024-02-26T09:05:51;10.77;;;9.10;;
7158;SDS011;63175;52.374;13.132;2024-02-26T09:08:18;11.07;;;8.60;;
7158;SDS011;63175;52.374;13.132;2024-02-26T09:10:44;11.13;;;8.63;;
7158;SDS011;63175;52.374;13.132;2024-02-26T09:13:13;11.50;;;9.83;;
7158;SDS011;63175;52.374;13.132;2024-02-26T09:15:39;11.50;;;8.90;;
7158;SDS011;63175;52.374;13.132;2024-02-26T09:18:06;10.30;;;8.83;;
7158;SDS011;63175;52.374;13.132;2024-02-26T09:20:33;11.90;;;8.63;;
7158;SDS011;63175;52.374;13.132;2024-02-26T09:23:00;12.83;;;9.50;;
7158;SDS011;63175;52.374;13.132;2024-02-26T09:25:27;10.47;;;8.27;;
7158;SDS011;63175;52.374;13.132;2024-02-26T09:27:54;9.93;;;8.73;;
7158;SDS011;63175;52.374;13.132;2024-02-26T09:30:22;11.80;;;9.23;;
7158;SDS011;63175;52.374;13.132;2024-02-26T09:32:49;9.43;;;8.30;;
7158;SDS011;63175;52.374;13.132;2024-02-26T09:35:16;12.27;;;9.17;;
7158;SDS011;63175;52.374;13.132;2024-02-26T09:37:43;14.83;;;9.10;;
7158;SDS011;63175;52.374;13.132;2024-02-26T09:40:10;12.07;;;8.97;;
7158;SDS011;63175;52.374;13.132;2024-02-26T09:42:38;11.73;;;8.23;;
7158;SDS011;63175;52.374;13.132;2024-02-26T09:45:10;10.90;;;8.63;;
7158;SDS011;63175;52.374;13.132;2024-02-26T09:47:41;13.23;;;9.60;;
7158;SDS011;63175;52.374;13.132;2024-02-26T09:50:09;12.80;;;7.53;;
7158;SDS011;63175;52.374;13.132;2024-02-26T09:52:39;10.57;;;8.20;;
7158;SDS011;63175;52.374;13.132;2024-02-26T09:55:08;9.90;;;7.57;;
7158;SDS011;63175;52.374;13.132;2024-02-26T09:57:36;8.53;;;7.60;;
7158;SDS011;63175;52.374;13.132;2024-02-26T10:00:04;7.57;;;6.77;;
7158;SDS011;63175;52.374;13.132;2024-02-26T10:02:35;9.63;;;7.70;;
7158;SDS011;63175;52.374;13.132;2024-02-26T10:05:06;10.30;;;8.77;;
7158;SDS011;63175;52.374;13.132;2024-02-26T10:07:36;8.10;;;6.70;;
7158;SDS011;63175;52.374;13.132;2024-02-26T10:10:04;8.80;;;7.10;;
7158;SDS011;63175;52.374;13.132;2024-02-26T10:12:32;8.90;;;6.73;;
7158;SDS011;63175;52.374;13.132;2024-02-26T10:14:59;8.23;;;6.80;;
7158;SDS011;63175;52.374;13.132;2024-02-26T10:17:26;7.90;;;7.10;;
7158;SDS011;63175;52.374;13.132;2024-02-26T10:19:53;7.23;;;6.53;;
7158;SDS011;63175;52.374;13.132;2024-02-26T10:22:22;7.47;;;6.63;;
7158;SDS011;63175;52.374;13.132;2024-02-26T10:24:49;8.23;;;6.10;;
7158;SDS011;63175;52.374;13.132;2024-02-26T10:27:16;9.47;;;6.70;;
7158;SDS011;63175;52.374;13.132;2024-02-26T10:29:44;8.00;;;6.87;;
7158;SDS011;63175;52.374;13.132;2024-02-26T10:32:12;7.80;;;5.70;;
7158;SDS011;63175;52.374;13.132;2024-02-26T10:34:39;6.87;;;6.10;;
7158;SDS011;63175;52.374;13.132;2024-02-26T10:37:06;7.10;;;6.20;;
7158;SDS011;63175;52.374;13.132;2024-02-26T10:39:37;8.53;;;6.50;;
7158;SDS011;63175;52.374;13.132;2024-02-26T10:42:04;9.70;;;6.57;;
7158;SDS011;63175;52.374;13.132;2024-02-26T10:44:34;8.60;;;5.40;;
7158;SDS011;63175;52.374;13.132;2024-02-26T10:47:01;6.90;;;6.23;;
7158;SDS011;63175;52.374;13.132;2024-02-26T10:49:29;6.20;;;5.60;;
7158;SDS011;63175;52.374;13.132;2024-02-26T10:51:56;9.23;;;5.33;;
7158;SDS011;63175;52.374;13.132;2024-02-26T10:54:23;4.87;;;4.37;;
7158;SDS011;63175;52.374;13.132;2024-02-26T10:56:54;9.03;;;5.73;;
7158;SDS011;63175;52.374;13.132;2024-02-26T10:59:23;8.50;;;6.17;;
7158;SDS011;63175;52.374;13.132;2024-02-26T11:01:50;8.07;;;5.87;;
7158;SDS011;63175;52.374;13.132;2024-02-26T11:04:17;8.00;;;6.00;;
7158;SDS011;63175;52.374;13.132;2024-02-26T11:06:45;6.20;;;5.10;;
7158;SDS011;63175;52.374;13.132;2024-02-26T11:09:12;7.53;;;6.47;;
7158;SDS011;63175;52.374;13.132;2024-02-26T11:11:40;5.80;;;5.20;;
7158;SDS011;63175;52.374;13.132;2024-02-26T11:14:10;5.77;;;4.70;;
7158;SDS011;63175;52.374;13.132;2024-02-26T11:16:39;5.60;;;5.03;;
7158;SDS011;63175;52.374;13.132;2024-02-26T11:19:08;5.67;;;5.10;;
7158;SDS011;63175;52.374;13.132;2024-02-26T11:21:36;8.40;;;6.30;;
7158;SDS011;63175;52.374;13.132;2024-02-26T11:24:07;7.10;;;5.67;;
7158;SDS011;63175;52.374;13.132;2024-02-26T11:26:38;4.57;;;4.03;;
7158;SDS011;63175;52.374;13.132;2024-02-26T11:29:11;5.90;;;5.30;;
7158;SDS011;63175;52.374;13.132;2024-02-26T11:31:42;6.13;;;4.57;;
7158;SDS011;63175;52.374;13.132;2024-02-26T11:34:09;5.20;;;4.60;;
7158;SDS011;63175;52.374;13.132;2024-02-26T11:36:38;5.97;;;4.20;;
7158;SDS011;63175;52.374;13.132;2024-02-26T11:39:05;4.43;;;4.00;;
7158;SDS011;63175;52.374;13.132;2024-02-26T11:41:32;5.43;;;4.50;;
7158;SDS011;63175;52.374;13.132;2024-02-26T11:44:00;5.57;;;4.30;;
7158;SDS011;63175;52.374;13.132;2024-02-26T11:46:31;5.50;;;4.70;;
7158;SDS011;63175;52.374;13.132;2024-02-26T11:48:59;4.00;;;3.67;;
7158;SDS011;63175;52.374;13.132;2024-02-26T11:51:27;4.60;;;4.07;;
7158;SDS011;63175;52.374;13.132;2024-02-26T11:53:58;4.07;;;3.77;;
7158;SDS011;63175;52.374;13.132;2024-02-26T11:56:25;4.30;;;3.90;;
7158;SDS011;63175;52.374;13.132;2024-02-26T11:58:58;4.40;;;3.80;;
7158;SDS011;63175;52.374;13.132;2024-02-26T12:01:37;3.77;;;3.47;;
7158;SDS011;63175;52.374;13.132;2024-02-26T12:04:15;5.13;;;4.20;;
7158;SDS011;63175;52.374;13.132;2024-02-26T12:06:45;5.53;;;4.20;;
7158;SDS011;63175;52.374;13.132;2024-02-26T12:09:31;4.70;;;3.90;;
7158;SDS011;63175;52.374;13.132;2024-02-26T12:12:03;4.87;;;3.57;;
7158;SDS011;63175;52.374;13.132;2024-02-26T12:14:32;3.70;;;3.40;;
7158;SDS011;63175;52.374;13.132;2024-02-26T12:17:02;4.93;;;4.43;;
7158;SDS011;63175;52.374;13.132;2024-02-26T12:19:32;4.53;;;4.00;;
7158;SDS011;63175;52.374;13.132;2024-02-26T12:22:00;5.77;;;4.23;;
7158;SDS011;63175;52.374;13.132;2024-02-26T12:24:26;3.83;;;3.53;;
7158;SDS011;63175;52.374;13.132;2024-02-26T12:26:53;4.10;;;3.70;;
7158;SDS011;63175;52.374;13.132;2024-02-26T12:29:20;3.73;;;3.43;;
7158;SDS011;63175;52.374;13.132;2024-02-26T12:31:47;6.17;;;3.97;;
7158;SDS011;63175;52.374;13.132;2024-02-26T12:34:16;3.80;;;3.43;;
7158;SDS011;63175;52.374;13.132;2024-02-26T12:36:43;5.50;;;3.53;;
7158;SDS011;63175;52.374;13.132;2024-02-26T12:39:10;3.63;;;3.27;;
7158;SDS011;63175;52.374;13.132;2024-02-26T12:41:37;3.50;;;3.20;;
7158;SDS011;63175;52.374;13.132;2024-02-26T12:44:05;3.83;;;3.43;;
7158;SDS011;63175;52.374;13.132;2024-02-26T12:46:33;4.93;;;4.43;;
7158;SDS011;63175;52.374;13.132;2024-02-26T12:49:00;5.27;;;4.10;;
7158;SDS011;63175;52.374;13.132;2024-02-26T12:51:28;10.13;;;3.20;;
7158;SDS011;63175;52.374;13.132;2024-02-26T12:53:56;3.27;;;2.97;;
7158;SDS011;63175;52.374;13.132;2024-02-26T12:56:23;5.00;;;4.50;;
7158;SDS011;63175;52.374;13.132;2024-02-26T12:58:51;6.00;;;5.20;;
7158;SDS011;63175;52.374;13.132;2024-02-26T13:01:19;4.63;;;4.23;;
7158;SDS011;63175;52.374;13.132;2024-02-26T13:03:48;4.70;;;3.80;;
7158;SDS011;63175;52.374;13.132;2024-02-26T13:06:15;4.67;;;3.93;;
7158;SDS011;63175;52.374;13.132;2024-02-26T13:08:44;3.30;;;3.00;;
7158;SDS011;63175;52.374;13.132;2024-02-26T13:11:11;3.50;;;3.20;;
7158;SDS011;63175;52.374;13.132;2024-02-26T13:13:38;3.90;;;2.87;;
7158;SDS011;63175;52.374;13.132;2024-02-26T13:16:06;4.00;;;3.17;;
7158;SDS011;63175;52.374;13.132;2024-02-26T13:18:34;6.20;;;3.27;;
7158;SDS011;63175;52.374;13.132;2024-02-26T13:21:08;4.27;;;3.83;;
7158;SDS011;63175;52.374;13.132;2024-02-26T13:23:36;4.17;;;3.77;;
7158;SDS011;63175;52.374;13.132;2024-02-26T13:26:04;3.20;;;2.83;;
7158;SDS011;63175;52.374;13.132;2024-02-26T13:28:32;3.33;;;2.93;;
7158;SDS011;63175;52.374;13.132;2024-02-26T13:30:59;3.03;;;2.83;;
7158;SDS011;63175;52.374;13.132;2024-02-26T13:33:28;3.60;;;3.30;;
7158;SDS011;63175;52.374;13.132;2024-02-26T13:35:56;4.03;;;2.67;;
7158;SDS011;63175;52.374;13.132;2024-02-26T13:38:23;2.90;;;2.70;;
7158;SDS011;63175;52.374;13.132;2024-02-26T13:40:50;3.43;;;2.83;;
7158;SDS011;63175;52.374;13.132;2024-02-26T13:43:19;3.40;;;3.10;;
7158;SDS011;63175;52.374;13.132;2024-02-26T13:45:46;4.27;;;3.50;;
7158;SDS011;63175;52.374;13.132;2024-02-26T13:48:14;5.97;;;3.70;;
7158;SDS011;63175;52.374;13.132;2024-02-26T13:50:41;4.67;;;4.00;;
7158;SDS011;63175;52.374;13.132;2024-02-26T13:53:10;4.43;;;4.03;;
7158;SDS011;63175;52.374;13.132;2024-02-26T13:55:37;5.33;;;4.80;;
7158;SDS011;63175;52.374;13.132;2024-02-26T13:58:07;6.57;;;5.03;;
7158;SDS011;63175;52.374;13.132;2024-02-26T14:00:36;6.03;;;5.40;;
7158;SDS011;63175;52.374;13.132;2024-02-26T14:03:03;7.77;;;5.30;;
7158;SDS011;63175;52.374;13.132;2024-02-26T14:05:30;8.80;;;6.03;;
7158;SDS011;63175;52.374;13.132;2024-02-26T14:07:57;5.80;;;4.97;;
7158;SDS011;63175;52.374;13.132;2024-02-26T14:10:24;5.60;;;4.20;;
7158;SDS011;63175;52.374;13.132;2024-02-26T14:12:51;4.83;;;4.20;;
7158;SDS011;63175;52.374;13.132;2024-02-26T14:15:18;4.23;;;3.37;;
7158;SDS011;63175;52.374;13.132;2024-02-26T14:17:46;4.57;;;3.63;;
7158;SDS011;63175;52.374;13.132;2024-02-26T14:20:18;4.50;;;4.10;;
7158;SDS011;63175;52.374;13.132;2024-02-26T14:22:45;5.00;;;4.07;;
7158;SDS011;63175;52.374;13.132;2024-02-26T14:25:12;5.00;;;3.90;;
7158;SDS011;63175;52.374;13.132;2024-02-26T14:27:39;4.30;;;3.20;;
7158;SDS011;63175;52.374;13.132;2024-02-26T14:30:06;3.77;;;3.33;;
7158;SDS011;63175;52.374;13.132;2024-02-26T14:32:34;6.90;;;4.17;;
7158;SDS011;63175;52.374;13.132;2024-02-26T14:35:04;3.63;;;3.33;;
7158;SDS011;63175;52.374;13.132;2024-02-26T14:37:33;2.80;;;2.60;;
7158;SDS011;63175;52.374;13.132;2024-02-26T14:39:59;3.40;;;3.10;;
7158;SDS011;63175;52.374;13.132;2024-02-26T14:42:27;4.13;;;3.50;;
7158;SDS011;63175;52.374;13.132;2024-02-26T14:44:54;4.07;;;3.50;;
7158;SDS011;63175;52.374;13.132;2024-02-26T14:47:21;4.37;;;3.17;;